createdAt,value
2023-01-23T00:02:52.482Z,103349.50
2023-01-23T00:06:03.844Z,103343.28
2023-01-23T00:09:05.481Z,103349.41
2023-01-23T00:12:07.282Z,103352.00
2023-01-23T00:15:10.831Z,103356.38
2023-01-23T00:18:12.394Z,103356.41
2023-01-23T00:21:19.121Z,103350.28
2023-01-23T00:24:20.676Z,103348.50
2023-01-23T00:27:22.230Z,103349.41
2023-01-23T00:30:23.789Z,103353.78
2023-01-23T00:33:25.328Z,103345.03
2023-01-23T00:36:38.653Z,103348.50
2023-01-23T00:39:40.773Z,103351.09
2023-01-23T00:42:42.295Z,103353.69
2023-01-23T00:45:43.840Z,103357.16
2023-01-23T00:48:45.848Z,103360.66
2023-01-23T00:51:47.478Z,103363.31
2023-01-23T00:54:49.046Z,103358.03
2023-01-23T00:57:50.594Z,103365.06
2023-01-23T01:00:52.215Z,103362.44
2023-01-23T01:03:54.017Z,103367.69
2023-01-23T01:06:55.588Z,103375.63
2023-01-23T01:09:57.124Z,103377.38
2023-01-23T01:13:01.006Z,103377.38
2023-01-23T01:16:02.748Z,103376.50
2023-01-23T01:19:05.228Z,103382.63
2023-01-23T01:22:06.986Z,103383.47
2023-01-23T01:25:08.945Z,103386.97
2023-01-23T01:28:10.540Z,103386.94
2023-01-23T01:31:14.369Z,103378.16
2023-01-23T01:34:16.037Z,103376.34
2023-01-23T01:37:17.577Z,103378.94
2023-01-23T01:40:22.864Z,103381.53
2023-01-23T01:43:26.759Z,103371.84
2023-01-23T01:46:29.529Z,103358.69
2023-01-23T01:49:33.526Z,103356.91
2023-01-23T01:52:35.133Z,103357.75
2023-01-23T01:55:37.786Z,103363.88
2023-01-23T01:58:42.377Z,103365.59
2023-01-23T02:01:47.214Z,103376.16
2023-01-23T02:04:52.576Z,103383.19
2023-01-23T02:08:00.182Z,103376.19
2023-01-23T02:11:03.493Z,103376.19
2023-01-23T02:14:05.070Z,103378.81
2023-01-23T02:17:06.710Z,103389.31
2023-01-23T02:20:17.839Z,103387.59
2023-01-23T02:24:13.799Z,103392.88
2023-01-23T02:27:15.379Z,103396.38
2023-01-23T02:30:18.785Z,103393.81
2023-01-23T02:33:20.496Z,103398.22
2023-01-23T02:36:26.815Z,103399.94
2023-01-23T02:39:28.652Z,103395.63
2023-01-23T02:42:31.071Z,103404.38
2023-01-23T02:45:33.753Z,103403.50
2023-01-23T02:48:36.139Z,103403.50
2023-01-23T02:51:37.784Z,103401.72
2023-01-23T02:54:40.684Z,103394.72
2023-01-23T02:57:42.252Z,103399.09
2023-01-23T03:00:43.955Z,103406.09
2023-01-23T03:03:45.677Z,103405.16
2023-01-23T03:06:47.631Z,103407.78
2023-01-23T03:09:49.900Z,103406.94
2023-01-23T03:12:51.421Z,103413.09
2023-01-23T03:15:58.825Z,103406.94
2023-01-23T03:19:05.429Z,103410.47
2023-01-23T03:22:07.313Z,103410.47
2023-01-23T03:25:09.408Z,103411.34
2023-01-23T03:28:33.553Z,103408.72
2023-01-23T03:31:35.200Z,103411.34
2023-01-23T03:34:36.933Z,103416.59
2023-01-23T03:37:38.531Z,103413.97
2023-01-23T03:41:02.858Z,103428.00
2023-01-23T03:44:04.501Z,103421.00
2023-01-23T03:47:06.680Z,103421.03
2023-01-23T03:50:08.898Z,103427.19
2023-01-23T03:53:10.482Z,103428.03
2023-01-23T03:56:12.027Z,103430.66
2023-01-23T03:59:13.625Z,103441.19
2023-01-23T04:02:15.184Z,103438.56
2023-01-23T04:05:16.723Z,103432.41
2023-01-23T04:08:18.493Z,103438.56
2023-01-23T04:11:20.490Z,103431.53
2023-01-23T04:14:23.816Z,103439.41
2023-01-23T04:17:25.366Z,103438.50
2023-01-23T04:20:26.928Z,103441.13
2023-01-23T04:23:28.484Z,103446.34
2023-01-23T04:26:30.220Z,103446.34
2023-01-23T04:29:31.797Z,103447.19
2023-01-23T04:32:33.333Z,103451.59
2023-01-23T04:35:35.018Z,103451.56
2023-01-23T04:38:36.846Z,103456.84
2023-01-23T04:41:38.388Z,103459.44
2023-01-23T04:44:39.931Z,103462.97
2023-01-23T04:47:41.653Z,103456.81
2023-01-23T04:50:43.273Z,103456.78
2023-01-23T04:53:44.791Z,103458.56
2023-01-23T04:56:46.969Z,103456.78
2023-01-23T04:59:48.534Z,103464.66
2023-01-23T05:02:50.617Z,103471.66
2023-01-23T05:05:52.275Z,103466.41
2023-01-23T05:08:53.876Z,103462.03
2023-01-23T05:11:55.444Z,103470.81
2023-01-23T05:14:57.053Z,103472.53
2023-01-23T05:17:58.859Z,103478.69
2023-01-23T05:21:00.435Z,103481.31
2023-01-23T05:24:01.997Z,103476.06
2023-01-23T05:27:03.612Z,103486.56
2023-01-23T05:30:05.900Z,103483.94
2023-01-23T05:33:07.463Z,103489.16
2023-01-23T05:36:09.046Z,103483.88
2023-01-23T05:39:10.579Z,103489.09
2023-01-23T05:42:12.109Z,103499.56
2023-01-23T05:45:13.913Z,103498.72
2023-01-23T05:48:15.612Z,103506.59
2023-01-23T05:51:18.673Z,103507.53
2023-01-23T05:54:20.312Z,103509.75
2023-01-23T05:57:22.217Z,103514.25
2023-01-23T06:00:23.756Z,103515.06
2023-01-23T06:03:25.379Z,103526.38
2023-01-23T06:06:26.970Z,103522.84
2023-01-23T06:09:29.326Z,103523.69
2023-01-23T06:12:30.876Z,103511.38
2023-01-23T06:15:32.788Z,103523.63
2023-01-23T06:18:34.374Z,103521.84
2023-01-23T06:21:36.033Z,103515.69
2023-01-23T06:24:37.589Z,103515.69
2023-01-23T06:27:39.522Z,103508.66
2023-01-23T06:30:41.159Z,103505.13
2023-01-23T06:33:42.829Z,103520.91
2023-01-23T06:36:44.479Z,103517.34
2023-01-23T06:39:46.161Z,103522.59
2023-01-23T06:42:50.942Z,103521.69
2023-01-23T06:45:52.470Z,103516.41
2023-01-23T06:48:54.244Z,103518.13
2023-01-23T06:51:55.952Z,103518.13
2023-01-23T06:54:57.498Z,103519.91
2023-01-23T06:57:59.583Z,103529.53
2023-01-23T07:01:09.593Z,103519.88
2023-01-23T07:04:11.155Z,103527.75
2023-01-23T07:07:12.715Z,103534.75
2023-01-23T07:10:14.433Z,103541.13
2023-01-23T07:13:15.964Z,103543.78
2023-01-23T07:16:17.587Z,103549.09
2023-01-23T07:19:19.188Z,103538.59
2023-01-23T07:22:22.616Z,103548.22
2023-01-23T07:25:25.311Z,103543.78
2023-01-23T07:28:27.298Z,103552.53
2023-01-23T07:31:28.858Z,103555.34
2023-01-23T07:34:30.426Z,103560.97
2023-01-23T07:37:32.221Z,103561.00
2023-01-23T07:40:33.865Z,103563.59
2023-01-23T07:43:35.406Z,103572.31
2023-01-23T07:46:36.967Z,103574.00
2023-01-23T07:49:38.497Z,103583.53
2023-01-23T07:52:40.323Z,103586.03
2023-01-23T07:55:41.911Z,103590.31
2023-01-23T07:58:43.505Z,103583.22
2023-01-23T08:01:45.130Z,103597.22
2023-01-23T08:04:46.703Z,103598.94
2023-01-23T08:07:48.326Z,103595.44
2023-01-23T08:10:50.225Z,103598.91
2023-01-23T08:13:52.188Z,103605.91
2023-01-23T08:16:53.998Z,103605.06
2023-01-23T08:19:55.694Z,103605.06
2023-01-23T08:22:59.033Z,103614.72
2023-01-23T08:26:03.496Z,103610.31
2023-01-23T08:29:05.370Z,103612.03
2023-01-23T08:32:07.095Z,103616.41
2023-01-23T08:35:09.162Z,103626.00
2023-01-23T08:38:11.133Z,103625.13
2023-01-23T08:41:12.849Z,103631.28
2023-01-23T08:44:14.429Z,103627.75
2023-01-23T08:47:15.984Z,103628.66
2023-01-23T08:50:17.915Z,103624.22
2023-01-23T08:53:19.707Z,103625.03
2023-01-23T08:56:23.364Z,103623.25
2023-01-23T08:59:25.162Z,103623.25
2023-01-23T09:02:26.805Z,103616.19
2023-01-23T09:05:29.426Z,103613.56
2023-01-23T09:08:31.025Z,103614.41
2023-01-23T09:11:32.574Z,103610.06
2023-01-23T09:14:34.204Z,103612.69
2023-01-23T09:17:36.136Z,103616.19
2023-01-23T09:20:38.522Z,103624.97
2023-01-23T09:23:40.136Z,103635.47
2023-01-23T09:26:43.576Z,103631.97
2023-01-23T09:29:45.277Z,103638.16
2023-01-23T09:32:46.816Z,103643.47
2023-01-23T09:35:51.776Z,103642.88
2023-01-23T09:38:53.297Z,103642.13
2023-01-23T09:41:55.519Z,103636.00
2023-01-23T09:45:03.464Z,103640.38
2023-01-23T09:48:27.101Z,103636.84
2023-01-23T09:51:37.668Z,103621.91
2023-01-23T09:54:50.881Z,103629.75
2023-01-23T09:57:57.693Z,103628.00
2023-01-23T10:00:59.310Z,103626.22
2023-01-23T10:04:02.024Z,103629.69
2023-01-23T10:07:25.194Z,103624.44
2023-01-23T10:10:35.801Z,103624.44
2023-01-23T10:13:49.377Z,103631.47
2023-01-23T10:17:07.614Z,103642.03
2023-01-23T10:20:30.310Z,103642.94
2023-01-23T10:23:47.048Z,103636.78
2023-01-23T10:26:49.031Z,103641.16
2023-01-23T10:29:57.787Z,103633.31
2023-01-23T10:33:13.498Z,103643.94
2023-01-23T10:36:42.091Z,103643.97
2023-01-23T10:39:54.958Z,103631.72
2023-01-23T10:43:02.694Z,103632.59
2023-01-23T10:46:16.700Z,103638.75
2023-01-23T10:49:37.669Z,103635.28
2023-01-23T10:52:42.432Z,103639.66
2023-01-23T10:55:45.642Z,103641.44
2023-01-23T10:58:49.350Z,103653.72
2023-01-23T11:02:08.906Z,103645.88
2023-01-23T11:05:52.589Z,103652.94
2023-01-23T11:09:01.629Z,103652.03
2023-01-23T11:12:05.420Z,103652.94
2023-01-23T11:15:27.519Z,103651.22
2023-01-23T11:18:33.173Z,103655.28
2023-01-23T11:21:54.916Z,103662.44
2023-01-23T11:24:57.035Z,103661.50
2023-01-23T11:28:16.924Z,103661.44
2023-01-23T11:31:22.089Z,103659.63
2023-01-23T11:34:29.240Z,103660.47
2023-01-23T11:37:34.848Z,103669.22
2023-01-23T11:40:36.528Z,103663.06
2023-01-23T11:43:39.166Z,103653.44
2023-01-23T11:47:18.162Z,103646.44
2023-01-23T11:50:49.963Z,103648.16
2023-01-23T11:54:19.514Z,103655.13
2023-01-23T11:57:43.863Z,103656.88
2023-01-23T12:01:11.875Z,103660.31
2023-01-23T12:04:39.957Z,103662.91
2023-01-23T12:07:56.315Z,103656.72
2023-01-23T12:11:20.204Z,103647.06
2023-01-23T12:14:33.831Z,103643.59
2023-01-23T12:18:07.821Z,103634.00
2023-01-23T12:21:31.897Z,103641.03
2023-01-23T12:24:39.178Z,103632.28
2023-01-23T12:27:49.693Z,103633.22
2023-01-23T12:31:23.641Z,103637.59
2023-01-23T12:34:40.580Z,103630.59
2023-01-23T12:37:57.336Z,103644.59
2023-01-23T12:41:13.201Z,103636.72
2023-01-23T12:44:20.679Z,103632.28
2023-01-23T12:47:40.762Z,103630.56
2023-01-23T12:50:50.432Z,103640.22
2023-01-23T12:53:57.518Z,103641.13
2023-01-23T12:57:00.388Z,103641.09
2023-01-23T13:00:26.948Z,103637.59
2023-01-23T13:03:51.666Z,103644.59
2023-01-23T13:06:57.159Z,103654.25
2023-01-23T13:11:14.616Z,103642.88
2023-01-23T13:14:25.562Z,103649.91
2023-01-23T13:17:41.773Z,103649.91
2023-01-23T13:21:16.033Z,103663.91
2023-01-23T13:25:01.140Z,103661.28
2023-01-23T13:28:45.008Z,103665.66
2023-01-23T13:31:50.426Z,103667.44
2023-01-23T13:34:52.362Z,103677.94
2023-01-23T13:37:54.099Z,103676.19
2023-01-23T13:41:04.707Z,103672.66
2023-01-23T13:44:40.350Z,103668.25
2023-01-23T14:22:46.333Z,103673.56
2023-01-23T14:25:48.343Z,103670.06
2023-01-23T14:29:00.598Z,103670.06
2023-01-23T14:32:02.541Z,103667.44
2023-01-23T14:35:19.616Z,103655.13
2023-01-23T14:38:31.731Z,103649.81
2023-01-23T14:41:41.365Z,103648.06
2023-01-23T14:44:46.984Z,103637.50
2023-01-23T14:47:59.713Z,103637.47
2023-01-23T14:51:17.338Z,103629.59
2023-01-23T14:54:22.929Z,103632.19
2023-01-23T14:57:26.677Z,103627.81
2023-01-23T15:00:29.413Z,103620.75
2023-01-23T15:03:39.733Z,103615.50
2023-01-23T15:06:42.410Z,103621.63
2023-01-23T15:09:45.860Z,103619.00
2023-01-23T15:12:57.463Z,103612.84
2023-01-23T15:16:02.378Z,103612.84
2023-01-23T15:19:18.815Z,103602.28
2023-01-23T15:22:26.463Z,103606.66
2023-01-23T15:25:33.684Z,103603.13
2023-01-23T15:28:53.797Z,103607.47
2023-01-23T15:31:56.719Z,103623.22
2023-01-23T15:34:59.188Z,103618.81
2023-01-23T15:38:05.097Z,103618.31
2023-01-23T15:41:10.970Z,103621.13
2023-01-23T15:44:15.132Z,103620.28
2023-01-23T15:47:16.681Z,103634.28
2023-01-23T15:50:18.398Z,103632.50
2023-01-23T15:53:20.075Z,103631.69
2023-01-23T15:56:33.635Z,103627.31
2023-01-23T15:59:36.169Z,103629.06
2023-01-23T16:02:47.111Z,103636.97
2023-01-23T16:05:56.536Z,103626.44
2023-01-23T16:09:05.205Z,103630.88
2023-01-23T16:12:14.336Z,103637.03
2023-01-23T16:15:18.471Z,103646.66
2023-01-23T16:18:20.153Z,103635.25
2023-01-23T16:21:27.995Z,103639.66
2023-01-23T16:24:34.424Z,103643.16
2023-01-23T16:27:36.063Z,103647.50
2023-01-23T16:30:37.700Z,103650.94
2023-01-23T16:33:39.271Z,103659.66
2023-01-23T16:36:40.883Z,103664.03
2023-01-23T16:39:44.091Z,103660.50
2023-01-23T16:42:48.333Z,103664.88
2023-01-23T16:45:53.203Z,103669.31
2023-01-23T16:48:57.322Z,103665.78
2023-01-23T16:52:01.507Z,103671.88
2023-01-23T16:55:12.054Z,103683.28
2023-01-23T16:58:18.959Z,103678.00
2023-01-23T17:01:23.062Z,103680.69
2023-01-23T17:04:24.671Z,103679.78
2023-01-23T17:07:26.232Z,103677.16
2023-01-23T17:10:38.018Z,103682.38
2023-01-23T17:13:47.610Z,103688.50
2023-01-23T17:16:50.479Z,103691.97
2023-01-23T17:19:52.553Z,103698.09
2023-01-23T17:22:54.928Z,103691.09
2023-01-23T17:26:01.345Z,103696.34
2023-01-23T17:29:03.730Z,103704.22
2023-01-23T17:32:07.029Z,103702.41
2023-01-23T17:35:17.385Z,103697.09
2023-01-23T17:38:24.032Z,103698.81
2023-01-23T17:41:25.690Z,103705.81
2023-01-23T17:44:27.225Z,103697.91
2023-01-23T17:47:30.230Z,103694.44
2023-01-23T17:50:31.836Z,103700.59
2023-01-23T17:53:33.481Z,103705.00
2023-01-23T17:56:35.187Z,103707.63
2023-01-23T17:59:36.759Z,103705.91
2023-01-23T18:02:39.872Z,103706.84
2023-01-23T18:05:41.451Z,103714.72
2023-01-23T18:08:43.532Z,103714.78
2023-01-23T18:11:52.114Z,103711.28
2023-01-23T18:15:03.762Z,103713.88
2023-01-23T18:18:13.830Z,103714.81
2023-01-23T18:21:17.982Z,103718.28
2023-01-23T18:24:32.587Z,103726.19
2023-01-23T18:27:38.782Z,103727.97
2023-01-23T18:30:55.588Z,103721.81
2023-01-23T18:34:02.744Z,103731.44
2023-01-23T18:37:24.083Z,103734.97
2023-01-23T18:40:54.245Z,103736.72
2023-01-23T18:44:04.963Z,103734.03
2023-01-23T18:47:14.199Z,103731.38
2023-01-23T18:50:18.141Z,103734.06
2023-01-23T18:53:33.598Z,103738.50
2023-01-23T18:56:47.127Z,103733.25
2023-01-23T18:59:57.726Z,103736.81
2023-01-23T19:03:10.830Z,103744.75
2023-01-23T19:06:22.301Z,103742.13
2023-01-23T19:09:24.536Z,103741.25
2023-01-23T19:12:43.584Z,103738.63
2023-01-23T19:16:06.555Z,103735.94
2023-01-23T19:19:20.578Z,103740.28
2023-01-23T19:22:23.241Z,103735.81
2023-01-23T19:25:25.297Z,103739.31
2023-01-23T19:28:27.095Z,103735.78
2023-01-23T19:31:34.453Z,103742.78
2023-01-23T19:34:36.040Z,103733.16
2023-01-23T19:37:40.038Z,103733.09
2023-01-23T19:40:42.473Z,103739.25
2023-01-23T19:43:44.025Z,103739.22
2023-01-23T19:46:46.663Z,103741.84
2023-01-23T19:49:48.681Z,103741.00
2023-01-23T19:52:52.451Z,103739.22
2023-01-23T19:55:56.264Z,103738.31
2023-01-23T19:58:57.848Z,103734.75
2023-01-23T20:01:59.409Z,103739.06
2023-01-23T20:05:00.935Z,103739.97
2023-01-23T20:08:02.506Z,103730.38
2023-01-23T20:11:04.363Z,103749.78
2023-01-23T20:14:06.041Z,103745.47
2023-01-23T20:17:07.598Z,103748.13
2023-01-23T20:20:11.339Z,103749.88
2023-01-23T20:23:13.002Z,103754.22
2023-01-23T20:26:16.563Z,103748.09
2023-01-23T20:29:18.093Z,103758.63
2023-01-23T20:32:19.749Z,103747.19
2023-01-23T20:35:21.302Z,103755.13
2023-01-23T20:38:22.920Z,103755.13
2023-01-23T20:41:24.503Z,103762.19
2023-01-23T20:44:26.077Z,103760.41
2023-01-23T20:47:27.651Z,103763.91
2023-01-23T20:50:29.231Z,103767.41
2023-01-23T20:53:30.940Z,103763.88
2023-01-23T20:56:32.612Z,103759.47
2023-01-23T20:59:34.156Z,103763.00
2023-01-23T21:02:35.686Z,103765.66
2023-01-23T21:05:37.325Z,103756.06
2023-01-23T21:08:39.389Z,103763.97
2023-01-23T21:11:40.934Z,103757.00
2023-01-23T21:14:42.540Z,103758.84
2023-01-23T21:17:44.532Z,103758.03
2023-01-23T21:20:46.049Z,103763.38
2023-01-23T21:23:51.409Z,103764.28
2023-01-23T21:26:53.030Z,103759.00
2023-01-23T21:29:54.598Z,103751.09
2023-01-23T21:32:56.122Z,103754.59
2023-01-23T21:35:57.673Z,103744.91
2023-01-23T21:38:59.344Z,103746.66
2023-01-23T21:42:00.896Z,103746.66
2023-01-23T21:45:02.546Z,103752.84
2023-01-23T21:48:04.679Z,103765.25
2023-01-23T21:51:14.580Z,103755.56
2023-01-23T21:54:16.181Z,103763.47
2023-01-23T21:57:17.710Z,103773.97
2023-01-23T22:00:38.245Z,103776.53
2023-01-23T22:03:39.782Z,103783.91
2023-01-23T22:06:43.699Z,103779.09
2023-01-23T22:09:45.258Z,103782.75
2023-01-23T22:12:46.776Z,103786.31
2023-01-23T22:15:48.344Z,103798.59
2023-01-23T22:18:49.966Z,103793.22
2023-01-23T22:21:51.662Z,103794.88
2023-01-23T22:24:53.193Z,103802.69
2023-01-23T22:27:54.748Z,103802.63
2023-01-23T22:30:56.600Z,103810.50
2023-01-23T22:33:58.321Z,103811.41
2023-01-23T22:36:59.973Z,103803.44
2023-01-23T22:40:01.705Z,103798.97
2023-01-23T22:43:05.305Z,103804.13
2023-01-23T22:46:13.716Z,103803.19
2023-01-23T22:49:16.006Z,103806.63
2023-01-23T22:52:17.823Z,103810.06
2023-01-23T22:55:19.947Z,103797.69
2023-01-23T22:58:22.841Z,103801.13
2023-01-23T23:01:27.191Z,103799.31
2023-01-23T23:04:28.894Z,103802.81
2023-01-23T23:07:30.632Z,103800.16
2023-01-23T23:10:32.215Z,103796.59
2023-01-23T23:13:35.766Z,103797.47
2023-01-23T23:16:37.820Z,103784.47
2023-01-23T23:19:39.701Z,103803.81
2023-01-23T23:22:42.888Z,103795.91
2023-01-23T23:25:44.495Z,103794.13
2023-01-23T23:28:46.051Z,103794.09
2023-01-23T23:31:51.522Z,103794.03
2023-01-23T23:34:53.406Z,103795.78
2023-01-23T23:37:54.930Z,103801.00
2023-01-23T23:41:01.267Z,103800.97
2023-01-23T23:44:03.473Z,103803.59
2023-01-23T23:47:05.128Z,103804.44
2023-01-23T23:50:07.465Z,103793.91
2023-01-23T23:53:09.205Z,103792.94
2023-01-23T23:56:18.885Z,103799.03
2023-01-23T23:59:20.445Z,103791.09
